KCKV

Outlaw Field Airport

Clarksville, Tennessee, USA
METAR KCKV 190852Z AUTO 00000KT 1/4SM FG CLR 21/19 A2996 RMK AO2 SLP139 T02060194 53002
Observed Flight Rules
Sep-19 @ 08:52 UTC (13 minutes ago) Instrument Flight Rules
Visibility Clouds Conditions
1/4 miles
  • Clear skies
  • Fog
Temperatures Readings
Current 21°C / 70°F
Dewpoint 19°C / 66°F
Humidity 88%
Altimeter 29.96" Hg
Pressure 1013.9 hPa
Elevation 165
METAR KCKV 190852Z AUTO 00000KT 1/4SM FG CLR 21/19 A2996 RMK AO2 SLP139 T02060194 53002
Observed Flight Rules
Sep-19 @ 08:52 UTC
(13 minutes ago)
LIFR
Clouds
  • Clear skies
Conditions
  • Fog
Temperature Dewpoint
21°C / 70°F 19°C / 66°F
Humidity Altimeter Pressure
88% 29.96" Hg 1013.9 hPa